sensor_id;sensor_type;location;lat;lon;timestamp;P1;durP1;ratioP1;P2;durP2;ratioP2
72569;SDS011;60594;50.204;8.844;2023-02-11T00:00:19;32.40;;;15.50;;
72569;SDS011;60594;50.204;8.844;2023-02-11T00:03:06;25.35;;;12.60;;
72569;SDS011;60594;50.204;8.844;2023-02-11T00:05:33;25.25;;;13.40;;
72569;SDS011;60594;50.204;8.844;2023-02-11T00:08:00;28.33;;;14.65;;
72569;SDS011;60594;50.204;8.844;2023-02-11T00:10:26;22.33;;;11.13;;
72569;SDS011;60594;50.204;8.844;2023-02-11T00:12:54;26.98;;;12.90;;
72569;SDS011;60594;50.204;8.844;2023-02-11T00:15:21;31.52;;;16.08;;
72569;SDS011;60594;50.204;8.844;2023-02-11T00:17:48;32.38;;;15.35;;
72569;SDS011;60594;50.204;8.844;2023-02-11T00:20:15;29.83;;;15.10;;
72569;SDS011;60594;50.204;8.844;2023-02-11T00:22:42;32.50;;;13.73;;
72569;SDS011;60594;50.204;8.844;2023-02-11T00:25:08;27.60;;;13.80;;
72569;SDS011;60594;50.204;8.844;2023-02-11T00:27:35;30.38;;;15.68;;
72569;SDS011;60594;50.204;8.844;2023-02-11T00:30:03;33.17;;;13.05;;
72569;SDS011;60594;50.204;8.844;2023-02-11T00:32:31;34.47;;;15.40;;
72569;SDS011;60594;50.204;8.844;2023-02-11T00:34:58;26.65;;;13.85;;
72569;SDS011;60594;50.204;8.844;2023-02-11T00:37:25;29.73;;;13.18;;
72569;SDS011;60594;50.204;8.844;2023-02-11T00:39:51;28.70;;;13.70;;
72569;SDS011;60594;50.204;8.844;2023-02-11T00:42:18;29.08;;;14.50;;
72569;SDS011;60594;50.204;8.844;2023-02-11T00:44:45;31.90;;;14.73;;
72569;SDS011;60594;50.204;8.844;2023-02-11T00:47:11;31.50;;;15.82;;
72569;SDS011;60594;50.204;8.844;2023-02-11T00:49:39;29.83;;;15.80;;
72569;SDS011;60594;50.204;8.844;2023-02-11T00:52:06;24.50;;;11.52;;
72569;SDS011;60594;50.204;8.844;2023-02-11T00:54:34;29.33;;;14.18;;
72569;SDS011;60594;50.204;8.844;2023-02-11T00:57:01;23.23;;;11.25;;
72569;SDS011;60594;50.204;8.844;2023-02-11T00:59:27;30.90;;;14.95;;
72569;SDS011;60594;50.204;8.844;2023-02-11T01:01:54;32.35;;;14.45;;
72569;SDS011;60594;50.204;8.844;2023-02-11T01:04:21;28.38;;;13.75;;
72569;SDS011;60594;50.204;8.844;2023-02-11T01:06:52;31.42;;;15.05;;
72569;SDS011;60594;50.204;8.844;2023-02-11T01:09:19;34.17;;;16.95;;
72569;SDS011;60594;50.204;8.844;2023-02-11T01:11:46;33.10;;;16.13;;
72569;SDS011;60594;50.204;8.844;2023-02-11T01:14:13;32.78;;;15.43;;
72569;SDS011;60594;50.204;8.844;2023-02-11T01:16:40;35.33;;;16.58;;
72569;SDS011;60594;50.204;8.844;2023-02-11T01:19:06;32.35;;;16.10;;
72569;SDS011;60594;50.204;8.844;2023-02-11T01:21:33;25.70;;;13.98;;
72569;SDS011;60594;50.204;8.844;2023-02-11T01:24:00;30.00;;;15.77;;
72569;SDS011;60594;50.204;8.844;2023-02-11T01:26:26;31.48;;;16.45;;
72569;SDS011;60594;50.204;8.844;2023-02-11T01:28:53;33.15;;;16.98;;
72569;SDS011;60594;50.204;8.844;2023-02-11T01:31:20;33.70;;;15.13;;
72569;SDS011;60594;50.204;8.844;2023-02-11T01:33:47;27.52;;;13.93;;
72569;SDS011;60594;50.204;8.844;2023-02-11T01:36:14;29.63;;;14.13;;
72569;SDS011;60594;50.204;8.844;2023-02-11T01:38:41;32.67;;;15.30;;
72569;SDS011;60594;50.204;8.844;2023-02-11T01:41:10;29.42;;;14.77;;
72569;SDS011;60594;50.204;8.844;2023-02-11T01:43:41;32.67;;;14.73;;
72569;SDS011;60594;50.204;8.844;2023-02-11T01:46:17;33.10;;;15.43;;
72569;SDS011;60594;50.204;8.844;2023-02-11T01:48:55;31.30;;;15.45;;
72569;SDS011;60594;50.204;8.844;2023-02-11T01:54:13;32.30;;;14.30;;
72569;SDS011;60594;50.204;8.844;2023-02-11T01:57:04;34.03;;;16.90;;
72569;SDS011;60594;50.204;8.844;2023-02-11T02:10:19;35.13;;;15.13;;
72569;SDS011;60594;50.204;8.844;2023-02-11T02:12:49;28.80;;;14.68;;
72569;SDS011;60594;50.204;8.844;2023-02-11T02:18:07;30.83;;;14.88;;
72569;SDS011;60594;50.204;8.844;2023-02-11T02:23:28;32.35;;;15.27;;
72569;SDS011;60594;50.204;8.844;2023-02-11T02:40:12;30.98;;;13.48;;
72569;SDS011;60594;50.204;8.844;2023-02-11T02:42:45;31.83;;;14.65;;
72569;SDS011;60594;50.204;8.844;2023-02-11T02:45:13;31.63;;;14.25;;
72569;SDS011;60594;50.204;8.844;2023-02-11T02:47:41;36.95;;;13.95;;
72569;SDS011;60594;50.204;8.844;2023-02-11T02:50:08;32.50;;;14.18;;
72569;SDS011;60594;50.204;8.844;2023-02-11T02:52:40;29.38;;;14.60;;
72569;SDS011;60594;50.204;8.844;2023-02-11T03:01:08;30.08;;;14.50;;
72569;SDS011;60594;50.204;8.844;2023-02-11T03:03:51;27.65;;;13.85;;
72569;SDS011;60594;50.204;8.844;2023-02-11T03:09:39;34.28;;;15.60;;
72569;SDS011;60594;50.204;8.844;2023-02-11T03:12:27;31.23;;;13.68;;
72569;SDS011;60594;50.204;8.844;2023-02-11T03:14:57;29.10;;;15.32;;
72569;SDS011;60594;50.204;8.844;2023-02-11T03:17:25;30.77;;;15.15;;
72569;SDS011;60594;50.204;8.844;2023-02-11T03:19:55;29.55;;;15.13;;
72569;SDS011;60594;50.204;8.844;2023-02-11T03:22:25;35.72;;;15.70;;
72569;SDS011;60594;50.204;8.844;2023-02-11T03:24:55;35.67;;;14.35;;
72569;SDS011;60594;50.204;8.844;2023-02-11T03:30:03;30.90;;;16.58;;
72569;SDS011;60594;50.204;8.844;2023-02-11T03:32:42;30.75;;;14.98;;
72569;SDS011;60594;50.204;8.844;2023-02-11T03:40:51;27.27;;;13.95;;
72569;SDS011;60594;50.204;8.844;2023-02-11T03:43:19;27.15;;;13.38;;
72569;SDS011;60594;50.204;8.844;2023-02-11T03:45:50;34.83;;;14.95;;
72569;SDS011;60594;50.204;8.844;2023-02-11T03:48:21;27.95;;;14.05;;
72569;SDS011;60594;50.204;8.844;2023-02-11T03:50:48;34.03;;;16.17;;
72569;SDS011;60594;50.204;8.844;2023-02-11T03:53:18;22.73;;;11.93;;
72569;SDS011;60594;50.204;8.844;2023-02-11T03:55:46;37.67;;;15.25;;
72569;SDS011;60594;50.204;8.844;2023-02-11T03:58:15;29.77;;;15.07;;
72569;SDS011;60594;50.204;8.844;2023-02-11T04:00:43;35.20;;;16.52;;
72569;SDS011;60594;50.204;8.844;2023-02-11T04:03:11;32.80;;;16.67;;
72569;SDS011;60594;50.204;8.844;2023-02-11T04:05:38;28.15;;;13.32;;
72569;SDS011;60594;50.204;8.844;2023-02-11T04:08:05;27.50;;;13.68;;
72569;SDS011;60594;50.204;8.844;2023-02-11T04:10:32;29.52;;;14.80;;
72569;SDS011;60594;50.204;8.844;2023-02-11T04:12:58;36.05;;;16.00;;
72569;SDS011;60594;50.204;8.844;2023-02-11T04:15:25;31.67;;;15.93;;
72569;SDS011;60594;50.204;8.844;2023-02-11T04:17:51;34.42;;;15.38;;
72569;SDS011;60594;50.204;8.844;2023-02-11T04:20:18;31.63;;;14.38;;
72569;SDS011;60594;50.204;8.844;2023-02-11T04:22:44;38.95;;;15.25;;
72569;SDS011;60594;50.204;8.844;2023-02-11T04:25:11;39.85;;;16.63;;
72569;SDS011;60594;50.204;8.844;2023-02-11T04:27:37;34.05;;;14.93;;
72569;SDS011;60594;50.204;8.844;2023-02-11T04:30:04;34.92;;;15.05;;
72569;SDS011;60594;50.204;8.844;2023-02-11T04:32:32;31.58;;;14.20;;
72569;SDS011;60594;50.204;8.844;2023-02-11T04:34:58;33.40;;;15.32;;
72569;SDS011;60594;50.204;8.844;2023-02-11T04:37:25;32.40;;;14.25;;
72569;SDS011;60594;50.204;8.844;2023-02-11T04:39:51;32.65;;;15.50;;
72569;SDS011;60594;50.204;8.844;2023-02-11T04:42:18;37.95;;;15.10;;
72569;SDS011;60594;50.204;8.844;2023-02-11T04:44:44;33.20;;;15.25;;
72569;SDS011;60594;50.204;8.844;2023-02-11T04:47:11;30.55;;;13.75;;
72569;SDS011;60594;50.204;8.844;2023-02-11T04:49:40;29.70;;;13.90;;
72569;SDS011;60594;50.204;8.844;2023-02-11T04:52:07;28.40;;;13.70;;
72569;SDS011;60594;50.204;8.844;2023-02-11T04:54:34;27.48;;;13.15;;
72569;SDS011;60594;50.204;8.844;2023-02-11T04:57:00;28.67;;;14.35;;
72569;SDS011;60594;50.204;8.844;2023-02-11T04:59:27;34.42;;;15.77;;
72569;SDS011;60594;50.204;8.844;2023-02-11T05:01:54;27.67;;;14.52;;
72569;SDS011;60594;50.204;8.844;2023-02-11T05:04:21;34.67;;;16.38;;
72569;SDS011;60594;50.204;8.844;2023-02-11T05:06:47;30.33;;;14.93;;
72569;SDS011;60594;50.204;8.844;2023-02-11T05:09:14;28.38;;;13.93;;
72569;SDS011;60594;50.204;8.844;2023-02-11T05:11:40;29.88;;;13.95;;
72569;SDS011;60594;50.204;8.844;2023-02-11T05:14:06;32.60;;;15.38;;
72569;SDS011;60594;50.204;8.844;2023-02-11T05:16:33;29.77;;;14.77;;
72569;SDS011;60594;50.204;8.844;2023-02-11T05:19:00;30.45;;;15.38;;
72569;SDS011;60594;50.204;8.844;2023-02-11T05:21:26;26.75;;;13.45;;
72569;SDS011;60594;50.204;8.844;2023-02-11T05:23:53;27.23;;;13.90;;
72569;SDS011;60594;50.204;8.844;2023-02-11T05:26:19;28.83;;;13.43;;
72569;SDS011;60594;50.204;8.844;2023-02-11T05:28:45;31.60;;;13.90;;
72569;SDS011;60594;50.204;8.844;2023-02-11T05:31:12;34.90;;;15.57;;
72569;SDS011;60594;50.204;8.844;2023-02-11T05:33:39;29.85;;;14.82;;
72569;SDS011;60594;50.204;8.844;2023-02-11T05:36:07;30.98;;;13.95;;
72569;SDS011;60594;50.204;8.844;2023-02-11T05:41:03;29.33;;;14.07;;
72569;SDS011;60594;50.204;8.844;2023-02-11T05:43:30;26.73;;;12.68;;
72569;SDS011;60594;50.204;8.844;2023-02-11T05:45:57;29.23;;;13.13;;
72569;SDS011;60594;50.204;8.844;2023-02-11T05:48:24;24.42;;;13.75;;
72569;SDS011;60594;50.204;8.844;2023-02-11T05:50:50;28.83;;;14.43;;
72569;SDS011;60594;50.204;8.844;2023-02-11T05:53:17;28.52;;;12.88;;
72569;SDS011;60594;50.204;8.844;2023-02-11T05:55:44;26.85;;;13.90;;
72569;SDS011;60594;50.204;8.844;2023-02-11T05:58:10;30.13;;;13.80;;
72569;SDS011;60594;50.204;8.844;2023-02-11T06:00:37;29.23;;;12.95;;
72569;SDS011;60594;50.204;8.844;2023-02-11T06:03:03;27.95;;;13.13;;
72569;SDS011;60594;50.204;8.844;2023-02-11T06:05:30;31.73;;;15.60;;
72569;SDS011;60594;50.204;8.844;2023-02-11T06:07:57;29.83;;;13.18;;
72569;SDS011;60594;50.204;8.844;2023-02-11T06:10:23;25.98;;;13.10;;
72569;SDS011;60594;50.204;8.844;2023-02-11T06:12:50;28.13;;;13.27;;
72569;SDS011;60594;50.204;8.844;2023-02-11T06:15:17;25.67;;;11.75;;
72569;SDS011;60594;50.204;8.844;2023-02-11T06:17:43;30.17;;;14.00;;
72569;SDS011;60594;50.204;8.844;2023-02-11T06:20:10;29.55;;;13.18;;
72569;SDS011;60594;50.204;8.844;2023-02-11T06:22:36;25.05;;;11.98;;
72569;SDS011;60594;50.204;8.844;2023-02-11T06:25:03;28.30;;;14.02;;
72569;SDS011;60594;50.204;8.844;2023-02-11T06:27:30;29.00;;;12.65;;
72569;SDS011;60594;50.204;8.844;2023-02-11T06:29:57;27.17;;;10.70;;
72569;SDS011;60594;50.204;8.844;2023-02-11T06:32:23;25.55;;;13.05;;
72569;SDS011;60594;50.204;8.844;2023-02-11T06:34:51;28.23;;;13.23;;
72569;SDS011;60594;50.204;8.844;2023-02-11T06:37:17;24.33;;;11.73;;
72569;SDS011;60594;50.204;8.844;2023-02-11T06:39:44;26.48;;;11.88;;
72569;SDS011;60594;50.204;8.844;2023-02-11T06:42:10;30.00;;;13.82;;
72569;SDS011;60594;50.204;8.844;2023-02-11T06:44:38;28.90;;;13.77;;
72569;SDS011;60594;50.204;8.844;2023-02-11T06:47:04;29.15;;;13.07;;
72569;SDS011;60594;50.204;8.844;2023-02-11T06:49:31;24.42;;;11.50;;
72569;SDS011;60594;50.204;8.844;2023-02-11T06:51:57;23.25;;;12.10;;
72569;SDS011;60594;50.204;8.844;2023-02-11T06:54:24;29.63;;;13.95;;
72569;SDS011;60594;50.204;8.844;2023-02-11T06:56:51;28.38;;;12.80;;
72569;SDS011;60594;50.204;8.844;2023-02-11T06:59:18;29.35;;;13.25;;
72569;SDS011;60594;50.204;8.844;2023-02-11T07:01:47;29.95;;;15.13;;
72569;SDS011;60594;50.204;8.844;2023-02-11T07:04:14;21.45;;;11.27;;
72569;SDS011;60594;50.204;8.844;2023-02-11T07:06:41;23.05;;;12.23;;
72569;SDS011;60594;50.204;8.844;2023-02-11T07:09:08;27.98;;;13.77;;
72569;SDS011;60594;50.204;8.844;2023-02-11T07:11:34;25.73;;;12.00;;
72569;SDS011;60594;50.204;8.844;2023-02-11T07:14:03;22.95;;;11.85;;
72569;SDS011;60594;50.204;8.844;2023-02-11T07:16:31;26.17;;;13.05;;
72569;SDS011;60594;50.204;8.844;2023-02-11T07:18:58;24.90;;;11.90;;
72569;SDS011;60594;50.204;8.844;2023-02-11T07:21:25;24.65;;;12.23;;
72569;SDS011;60594;50.204;8.844;2023-02-11T07:23:52;28.40;;;12.25;;
72569;SDS011;60594;50.204;8.844;2023-02-11T07:26:20;31.85;;;14.68;;
72569;SDS011;60594;50.204;8.844;2023-02-11T07:28:48;31.08;;;15.13;;
72569;SDS011;60594;50.204;8.844;2023-02-11T07:31:22;25.33;;;11.68;;
72569;SDS011;60594;50.204;8.844;2023-02-11T07:33:52;27.42;;;11.90;;
72569;SDS011;60594;50.204;8.844;2023-02-11T07:36:20;22.52;;;11.63;;
72569;SDS011;60594;50.204;8.844;2023-02-11T07:38:47;25.10;;;11.80;;
72569;SDS011;60594;50.204;8.844;2023-02-11T07:41:16;23.95;;;12.70;;
72569;SDS011;60594;50.204;8.844;2023-02-11T07:43:44;26.45;;;12.57;;
72569;SDS011;60594;50.204;8.844;2023-02-11T07:46:15;25.15;;;12.18;;
72569;SDS011;60594;50.204;8.844;2023-02-11T07:48:43;29.20;;;12.02;;
72569;SDS011;60594;50.204;8.844;2023-02-11T07:51:11;28.13;;;13.38;;
72569;SDS011;60594;50.204;8.844;2023-02-11T07:53:38;26.85;;;13.07;;
72569;SDS011;60594;50.204;8.844;2023-02-11T07:56:04;28.90;;;14.20;;
72569;SDS011;60594;50.204;8.844;2023-02-11T07:58:31;25.15;;;11.88;;
72569;SDS011;60594;50.204;8.844;2023-02-11T08:01:06;24.75;;;12.48;;
72569;SDS011;60594;50.204;8.844;2023-02-11T08:03:36;26.13;;;11.48;;
72569;SDS011;60594;50.204;8.844;2023-02-11T08:06:04;29.05;;;13.15;;
72569;SDS011;60594;50.204;8.844;2023-02-11T08:08:32;26.17;;;12.30;;
72569;SDS011;60594;50.204;8.844;2023-02-11T08:11:04;25.13;;;11.73;;
72569;SDS011;60594;50.204;8.844;2023-02-11T08:13:35;27.83;;;12.65;;
72569;SDS011;60594;50.204;8.844;2023-02-11T08:16:02;26.65;;;12.55;;
72569;SDS011;60594;50.204;8.844;2023-02-11T08:18:30;21.15;;;10.88;;
72569;SDS011;60594;50.204;8.844;2023-02-11T08:21:04;22.92;;;11.70;;
72569;SDS011;60594;50.204;8.844;2023-02-11T08:23:32;26.17;;;12.40;;
72569;SDS011;60594;50.204;8.844;2023-02-11T08:26:04;24.88;;;12.63;;
72569;SDS011;60594;50.204;8.844;2023-02-11T08:28:39;22.73;;;12.18;;
72569;SDS011;60594;50.204;8.844;2023-02-11T08:31:07;23.70;;;12.00;;
72569;SDS011;60594;50.204;8.844;2023-02-11T08:33:36;23.30;;;11.60;;
72569;SDS011;60594;50.204;8.844;2023-02-11T08:36:09;22.83;;;11.88;;
72569;SDS011;60594;50.204;8.844;2023-02-11T08:38:50;24.45;;;12.43;;
72569;SDS011;60594;50.204;8.844;2023-02-11T08:41:18;25.05;;;12.68;;
72569;SDS011;60594;50.204;8.844;2023-02-11T08:43:45;26.17;;;11.70;;
72569;SDS011;60594;50.204;8.844;2023-02-11T08:46:13;22.77;;;11.13;;
72569;SDS011;60594;50.204;8.844;2023-02-11T08:48:45;25.23;;;11.90;;
72569;SDS011;60594;50.204;8.844;2023-02-11T08:51:16;24.27;;;11.52;;
72569;SDS011;60594;50.204;8.844;2023-02-11T08:53:45;19.35;;;10.55;;
72569;SDS011;60594;50.204;8.844;2023-02-11T08:56:12;24.08;;;11.10;;
72569;SDS011;60594;50.204;8.844;2023-02-11T08:58:40;24.20;;;10.52;;
72569;SDS011;60594;50.204;8.844;2023-02-11T09:01:08;27.05;;;11.82;;
72569;SDS011;60594;50.204;8.844;2023-02-11T09:03:39;26.05;;;11.45;;
72569;SDS011;60594;50.204;8.844;2023-02-11T09:06:05;27.70;;;12.10;;
72569;SDS011;60594;50.204;8.844;2023-02-11T09:08:34;24.95;;;12.35;;
72569;SDS011;60594;50.204;8.844;2023-02-11T09:11:02;26.55;;;13.25;;
72569;SDS011;60594;50.204;8.844;2023-02-11T09:13:30;22.80;;;11.40;;
72569;SDS011;60594;50.204;8.844;2023-02-11T09:15:57;25.40;;;11.77;;
72569;SDS011;60594;50.204;8.844;2023-02-11T09:18:24;25.48;;;11.85;;
72569;SDS011;60594;50.204;8.844;2023-02-11T09:20:50;25.13;;;12.52;;
72569;SDS011;60594;50.204;8.844;2023-02-11T09:23:17;22.48;;;11.00;;
72569;SDS011;60594;50.204;8.844;2023-02-11T09:25:44;25.80;;;12.27;;
72569;SDS011;60594;50.204;8.844;2023-02-11T09:28:10;27.15;;;11.88;;
72569;SDS011;60594;50.204;8.844;2023-02-11T09:30:37;27.75;;;11.98;;
72569;SDS011;60594;50.204;8.844;2023-02-11T09:33:03;28.80;;;11.85;;
72569;SDS011;60594;50.204;8.844;2023-02-11T09:35:30;22.63;;;10.93;;
72569;SDS011;60594;50.204;8.844;2023-02-11T09:37:58;24.10;;;11.27;;
72569;SDS011;60594;50.204;8.844;2023-02-11T09:40:24;23.08;;;12.35;;
72569;SDS011;60594;50.204;8.844;2023-02-11T09:42:52;26.67;;;13.75;;
72569;SDS011;60594;50.204;8.844;2023-02-11T09:45:22;25.85;;;11.55;;
72569;SDS011;60594;50.204;8.844;2023-02-11T09:48:11;25.50;;;11.98;;
72569;SDS011;60594;50.204;8.844;2023-02-11T09:50:49;22.30;;;11.82;;
72569;SDS011;60594;50.204;8.844;2023-02-11T09:53:23;25.95;;;13.30;;
72569;SDS011;60594;50.204;8.844;2023-02-11T09:55:52;25.13;;;11.90;;
72569;SDS011;60594;50.204;8.844;2023-02-11T09:58:28;24.73;;;12.02;;
72569;SDS011;60594;50.204;8.844;2023-02-11T10:12:10;25.90;;;13.25;;
72569;SDS011;60594;50.204;8.844;2023-02-11T10:20:43;30.45;;;13.65;;
72569;SDS011;60594;50.204;8.844;2023-02-11T10:23:18;23.63;;;13.00;;
72569;SDS011;60594;50.204;8.844;2023-02-11T10:25:50;24.42;;;12.43;;
72569;SDS011;60594;50.204;8.844;2023-02-11T10:28:20;24.65;;;12.20;;
72569;SDS011;60594;50.204;8.844;2023-02-11T10:30:55;25.33;;;13.35;;
72569;SDS011;60594;50.204;8.844;2023-02-11T10:33:44;29.23;;;13.80;;
72569;SDS011;60594;50.204;8.844;2023-02-11T10:36:17;24.60;;;12.55;;
72569;SDS011;60594;50.204;8.844;2023-02-11T10:38:44;26.90;;;13.13;;
72569;SDS011;60594;50.204;8.844;2023-02-11T10:41:32;26.80;;;12.65;;
72569;SDS011;60594;50.204;8.844;2023-02-11T10:44:01;24.48;;;12.60;;
72569;SDS011;60594;50.204;8.844;2023-02-11T10:46:32;24.50;;;12.00;;
72569;SDS011;60594;50.204;8.844;2023-02-11T10:49:03;27.63;;;11.77;;
72569;SDS011;60594;50.204;8.844;2023-02-11T10:51:30;27.67;;;13.40;;
72569;SDS011;60594;50.204;8.844;2023-02-11T10:56:31;25.92;;;11.38;;
72569;SDS011;60594;50.204;8.844;2023-02-11T10:59:01;26.73;;;13.32;;
72569;SDS011;60594;50.204;8.844;2023-02-11T11:01:38;27.45;;;13.20;;
72569;SDS011;60594;50.204;8.844;2023-02-11T11:04:05;28.63;;;13.73;;
72569;SDS011;60594;50.204;8.844;2023-02-11T11:06:32;26.27;;;13.32;;
72569;SDS011;60594;50.204;8.844;2023-02-11T11:09:00;21.88;;;11.85;;
72569;SDS011;60594;50.204;8.844;2023-02-11T11:11:27;30.40;;;13.43;;
72569;SDS011;60594;50.204;8.844;2023-02-11T11:13:58;30.38;;;12.32;;
72569;SDS011;60594;50.204;8.844;2023-02-11T11:16:26;27.40;;;12.35;;
72569;SDS011;60594;50.204;8.844;2023-02-11T11:24:21;21.70;;;11.20;;
72569;SDS011;60594;50.204;8.844;2023-02-11T11:26:55;27.40;;;12.15;;
72569;SDS011;60594;50.204;8.844;2023-02-11T11:32:11;28.05;;;13.32;;
72569;SDS011;60594;50.204;8.844;2023-02-11T11:34:51;20.90;;;11.05;;
72569;SDS011;60594;50.204;8.844;2023-02-11T11:37:22;24.60;;;11.57;;
72569;SDS011;60594;50.204;8.844;2023-02-11T11:39:56;28.92;;;13.13;;
72569;SDS011;60594;50.204;8.844;2023-02-11T11:42:28;25.27;;;11.52;;
72569;SDS011;60594;50.204;8.844;2023-02-11T11:45:30;27.63;;;12.10;;
72569;SDS011;60594;50.204;8.844;2023-02-11T11:50:51;22.95;;;11.48;;
72569;SDS011;60594;50.204;8.844;2023-02-11T11:55:52;26.40;;;13.02;;
72569;SDS011;60594;50.204;8.844;2023-02-11T11:58:21;23.38;;;11.65;;
72569;SDS011;60594;50.204;8.844;2023-02-11T12:03:56;25.23;;;10.70;;
72569;SDS011;60594;50.204;8.844;2023-02-11T12:13:33;22.92;;;10.02;;
72569;SDS011;60594;50.204;8.844;2023-02-11T12:16:10;24.17;;;12.05;;
72569;SDS011;60594;50.204;8.844;2023-02-11T12:19:06;27.20;;;11.73;;
72569;SDS011;60594;50.204;8.844;2023-02-11T12:30:01;27.35;;;11.98;;
72569;SDS011;60594;50.204;8.844;2023-02-11T12:35:14;21.20;;;10.07;;
72569;SDS011;60594;50.204;8.844;2023-02-11T12:43:39;25.50;;;10.35;;
72569;SDS011;60594;50.204;8.844;2023-02-11T12:49:12;25.70;;;11.65;;
72569;SDS011;60594;50.204;8.844;2023-02-11T12:54:37;24.77;;;11.63;;
72569;SDS011;60594;50.204;8.844;2023-02-11T12:57:19;25.88;;;10.48;;
72569;SDS011;60594;50.204;8.844;2023-02-11T13:03:06;22.17;;;10.68;;
72569;SDS011;60594;50.204;8.844;2023-02-11T13:07:58;25.35;;;10.82;;
72569;SDS011;60594;50.204;8.844;2023-02-11T13:10:34;36.72;;;15.82;;
72569;SDS011;60594;50.204;8.844;2023-02-11T13:13:12;25.90;;;11.20;;
72569;SDS011;60594;50.204;8.844;2023-02-11T13:18:20;26.20;;;11.82;;
72569;SDS011;60594;50.204;8.844;2023-02-11T13:20:56;26.45;;;11.05;;
72569;SDS011;60594;50.204;8.844;2023-02-11T13:23:53;24.63;;;11.93;;
72569;SDS011;60594;50.204;8.844;2023-02-11T13:26:41;27.52;;;12.95;;
72569;SDS011;60594;50.204;8.844;2023-02-11T13:29:30;21.55;;;10.70;;
72569;SDS011;60594;50.204;8.844;2023-02-11T13:37:12;26.48;;;11.05;;
72569;SDS011;60594;50.204;8.844;2023-02-11T13:40:00;25.42;;;10.15;;
72569;SDS011;60594;50.204;8.844;2023-02-11T13:42:31;22.98;;;10.82;;
72569;SDS011;60594;50.204;8.844;2023-02-11T13:45:00;23.50;;;9.80;;
72569;SDS011;60594;50.204;8.844;2023-02-11T13:49:57;23.30;;;10.77;;
72569;SDS011;60594;50.204;8.844;2023-02-11T13:52:35;23.05;;;11.02;;
72569;SDS011;60594;50.204;8.844;2023-02-11T13:55:22;26.67;;;10.73;;
72569;SDS011;60594;50.204;8.844;2023-02-11T13:58:14;25.00;;;10.43;;
72569;SDS011;60594;50.204;8.844;2023-02-11T14:09:00;20.67;;;9.73;;
72569;SDS011;60594;50.204;8.844;2023-02-11T14:11:44;21.20;;;9.80;;
72569;SDS011;60594;50.204;8.844;2023-02-11T14:19:33;20.17;;;9.23;;
72569;SDS011;60594;50.204;8.844;2023-02-11T14:22:10;20.50;;;9.70;;
72569;SDS011;60594;50.204;8.844;2023-02-11T14:25:01;19.70;;;9.32;;
72569;SDS011;60594;50.204;8.844;2023-02-11T14:30:11;19.10;;;9.88;;
72569;SDS011;60594;50.204;8.844;2023-02-11T14:33:00;19.45;;;8.93;;
72569;SDS011;60594;50.204;8.844;2023-02-11T14:35:47;20.20;;;9.98;;
72569;SDS011;60594;50.204;8.844;2023-02-11T14:41:01;22.35;;;9.73;;
72569;SDS011;60594;50.204;8.844;2023-02-11T14:43:35;17.73;;;8.68;;
72569;SDS011;60594;50.204;8.844;2023-02-11T14:46:05;19.88;;;9.15;;
72569;SDS011;60594;50.204;8.844;2023-02-11T14:48:33;19.27;;;9.38;;
72569;SDS011;60594;50.204;8.844;2023-02-11T14:51:05;19.65;;;9.98;;
72569;SDS011;60594;50.204;8.844;2023-02-11T14:53:36;21.52;;;9.52;;
72569;SDS011;60594;50.204;8.844;2023-02-11T14:56:23;21.38;;;10.38;;
72569;SDS011;60594;50.204;8.844;2023-02-11T14:58:56;21.08;;;9.48;;
72569;SDS011;60594;50.204;8.844;2023-02-11T15:04:01;20.10;;;9.80;;
72569;SDS011;60594;50.204;8.844;2023-02-11T15:06:40;17.08;;;9.50;;
72569;SDS011;60594;50.204;8.844;2023-02-11T15:09:15;20.95;;;9.68;;
72569;SDS011;60594;50.204;8.844;2023-02-11T15:11:47;21.55;;;11.00;;
72569;SDS011;60594;50.204;8.844;2023-02-11T15:14:20;20.30;;;8.88;;
72569;SDS011;60594;50.204;8.844;2023-02-11T15:16:50;18.45;;;9.18;;
72569;SDS011;60594;50.204;8.844;2023-02-11T15:19:33;18.70;;;8.52;;
72569;SDS011;60594;50.204;8.844;2023-02-11T15:22:04;20.60;;;9.10;;
72569;SDS011;60594;50.204;8.844;2023-02-11T15:24:41;16.08;;;8.10;;
72569;SDS011;60594;50.204;8.844;2023-02-11T15:29:42;14.45;;;8.02;;
72569;SDS011;60594;50.204;8.844;2023-02-11T15:34:42;19.73;;;8.63;;
72569;SDS011;60594;50.204;8.844;2023-02-11T15:37:21;20.05;;;8.45;;
72569;SDS011;60594;50.204;8.844;2023-02-11T15:42:26;18.40;;;9.07;;
72569;SDS011;60594;50.204;8.844;2023-02-11T15:47:37;17.85;;;8.55;;
72569;SDS011;60594;50.204;8.844;2023-02-11T15:50:06;17.85;;;8.68;;
72569;SDS011;60594;50.204;8.844;2023-02-11T15:52:34;19.70;;;9.38;;
72569;SDS011;60594;50.204;8.844;2023-02-11T15:55:01;18.42;;;10.10;;
72569;SDS011;60594;50.204;8.844;2023-02-11T15:57:28;20.65;;;9.35;;
72569;SDS011;60594;50.204;8.844;2023-02-11T15:59:55;21.23;;;10.18;;
72569;SDS011;60594;50.204;8.844;2023-02-11T16:02:30;20.63;;;9.65;;
72569;SDS011;60594;50.204;8.844;2023-02-11T16:05:04;17.38;;;8.25;;
72569;SDS011;60594;50.204;8.844;2023-02-11T16:07:41;16.25;;;7.88;;
72569;SDS011;60594;50.204;8.844;2023-02-11T16:18:01;17.25;;;8.68;;
72569;SDS011;60594;50.204;8.844;2023-02-11T16:20:38;17.50;;;8.18;;
72569;SDS011;60594;50.204;8.844;2023-02-11T16:23:06;17.70;;;8.73;;
72569;SDS011;60594;50.204;8.844;2023-02-11T16:25:36;19.20;;;8.65;;
72569;SDS011;60594;50.204;8.844;2023-02-11T16:28:03;18.00;;;8.52;;
72569;SDS011;60594;50.204;8.844;2023-02-11T16:30:34;19.70;;;8.27;;
72569;SDS011;60594;50.204;8.844;2023-02-11T16:33:03;17.17;;;9.07;;
72569;SDS011;60594;50.204;8.844;2023-02-11T16:35:30;19.90;;;8.98;;
72569;SDS011;60594;50.204;8.844;2023-02-11T16:37:58;18.02;;;9.07;;
72569;SDS011;60594;50.204;8.844;2023-02-11T16:40:25;17.15;;;8.05;;
72569;SDS011;60594;50.204;8.844;2023-02-11T16:42:52;20.90;;;8.85;;
72569;SDS011;60594;50.204;8.844;2023-02-11T16:45:19;16.17;;;7.70;;
72569;SDS011;60594;50.204;8.844;2023-02-11T16:47:46;19.80;;;9.02;;
72569;SDS011;60594;50.204;8.844;2023-02-11T16:50:23;19.00;;;8.75;;
72569;SDS011;60594;50.204;8.844;2023-02-11T16:52:51;16.80;;;9.35;;
72569;SDS011;60594;50.204;8.844;2023-02-11T16:55:18;14.82;;;7.95;;
72569;SDS011;60594;50.204;8.844;2023-02-11T16:57:45;15.35;;;8.55;;
72569;SDS011;60594;50.204;8.844;2023-02-11T17:00:14;18.58;;;8.00;;
72569;SDS011;60594;50.204;8.844;2023-02-11T17:02:41;19.55;;;7.68;;
72569;SDS011;60594;50.204;8.844;2023-02-11T17:05:14;16.88;;;8.55;;
72569;SDS011;60594;50.204;8.844;2023-02-11T17:07:48;16.55;;;8.93;;
72569;SDS011;60594;50.204;8.844;2023-02-11T17:10:16;16.75;;;8.32;;
72569;SDS011;60594;50.204;8.844;2023-02-11T17:12:48;20.80;;;7.50;;
72569;SDS011;60594;50.204;8.844;2023-02-11T17:15:16;18.13;;;8.82;;
72569;SDS011;60594;50.204;8.844;2023-02-11T17:17:42;19.20;;;8.38;;
72569;SDS011;60594;50.204;8.844;2023-02-11T17:20:10;17.25;;;7.47;;
72569;SDS011;60594;50.204;8.844;2023-02-11T17:25:05;14.80;;;8.07;;
72569;SDS011;60594;50.204;8.844;2023-02-11T17:27:32;16.35;;;7.80;;
72569;SDS011;60594;50.204;8.844;2023-02-11T17:29:59;15.75;;;8.48;;
72569;SDS011;60594;50.204;8.844;2023-02-11T17:32:27;17.88;;;8.38;;
72569;SDS011;60594;50.204;8.844;2023-02-11T17:34:54;16.42;;;8.02;;
72569;SDS011;60594;50.204;8.844;2023-02-11T17:37:22;15.02;;;8.35;;